Terminal Aerodrome Forecast
Issued by NWS Sioux Falls, SD

Home | Current Version | Previous Version | Graphics & Text | Print | Product List | Glossary On
Versions: 1 2 3 4 5 6 7 8 9 10 11 12 13 14 15
468
FTUS43 KFSD 210520
TAFHON
TAF
KHON 210520Z 2106/2206 17017KT P6SM SCT150
     FM211200 20012KT P6SM BKN100
     FM211300 25012KT P6SM BKN140
     FM211400 30014G23KT P6SM BKN110
     FM212200 29013KT P6SM SCT150
     FM220000 26010KT P6SM FEW200=

USA.gov is the U.S. government's official web portal to all federal, state and local government web resources and services.